sensor_id;sensor_type;location;lat;lon;timestamp;pressure;altitude;pressure_sealevel;temperature;humidity
49194;BME280;35029;50.804;12.866;2024-01-15T00:01:54;95900.88;;;-0.62;100.00
49194;BME280;35029;50.804;12.866;2024-01-15T00:04:20;95901.38;;;-0.58;100.00
49194;BME280;35029;50.804;12.866;2024-01-15T00:06:45;95900.09;;;-0.62;100.00
49194;BME280;35029;50.804;12.866;2024-01-15T00:09:11;95883.78;;;-0.56;100.00
49194;BME280;35029;50.804;12.866;2024-01-15T00:11:36;95874.56;;;-0.67;100.00
49194;BME280;35029;50.804;12.866;2024-01-15T00:14:02;95874.84;;;-0.62;100.00
49194;BME280;35029;50.804;12.866;2024-01-15T00:16:29;95879.09;;;-0.61;100.00
49194;BME280;35029;50.804;12.866;2024-01-15T00:18:55;95878.00;;;-0.66;100.00
49194;BME280;35029;50.804;12.866;2024-01-15T00:21:20;95879.88;;;-0.60;100.00
49194;BME280;35029;50.804;12.866;2024-01-15T00:23:46;95879.88;;;-0.60;100.00
49194;BME280;35029;50.804;12.866;2024-01-15T00:26:11;95876.88;;;-0.72;100.00
49194;BME280;35029;50.804;12.866;2024-01-15T00:28:38;95878.66;;;-0.73;100.00
49194;BME280;35029;50.804;12.866;2024-01-15T00:31:07;95876.53;;;-0.69;100.00
49194;BME280;35029;50.804;12.866;2024-01-15T00:33:32;95862.72;;;-0.78;100.00
49194;BME280;35029;50.804;12.866;2024-01-15T00:35:58;95848.78;;;-0.85;100.00
49194;BME280;35029;50.804;12.866;2024-01-15T00:38:24;95875.56;;;-0.68;100.00
49194;BME280;35029;50.804;12.866;2024-01-15T00:40:50;95848.50;;;-0.90;100.00
49194;BME280;35029;50.804;12.866;2024-01-15T00:43:16;95872.97;;;-0.68;100.00
49194;BME280;35029;50.804;12.866;2024-01-15T00:45:43;95867.28;;;-0.72;100.00
49194;BME280;35029;50.804;12.866;2024-01-15T00:48:09;95877.81;;;-0.65;100.00
49194;BME280;35029;50.804;12.866;2024-01-15T00:50:34;95872.72;;;-0.58;100.00
49194;BME280;35029;50.804;12.866;2024-01-15T00:53:00;95865.78;;;-0.66;100.00
49194;BME280;35029;50.804;12.866;2024-01-15T00:55:26;95852.19;;;-0.76;100.00
49194;BME280;35029;50.804;12.866;2024-01-15T00:57:52;95870.19;;;-0.66;100.00
49194;BME280;35029;50.804;12.866;2024-01-15T01:00:18;95865.47;;;-0.71;100.00
49194;BME280;35029;50.804;12.866;2024-01-15T01:02:43;95871.16;;;-0.68;100.00
49194;BME280;35029;50.804;12.866;2024-01-15T01:05:09;95863.53;;;-0.69;100.00
49194;BME280;35029;50.804;12.866;2024-01-15T01:07:34;95863.25;;;-0.82;100.00
49194;BME280;35029;50.804;12.866;2024-01-15T01:10:00;95861.81;;;-0.85;100.00
49194;BME280;35029;50.804;12.866;2024-01-15T01:12:26;95861.00;;;-0.86;100.00
49194;BME280;35029;50.804;12.866;2024-01-15T01:14:51;95863.09;;;-0.81;100.00
49194;BME280;35029;50.804;12.866;2024-01-15T01:17:17;95845.25;;;-0.92;100.00
49194;BME280;35029;50.804;12.866;2024-01-15T01:19:43;95837.59;;;-0.86;100.00
49194;BME280;35029;50.804;12.866;2024-01-15T01:22:09;95828.63;;;-0.83;100.00
49194;BME280;35029;50.804;12.866;2024-01-15T01:24:34;95822.97;;;-0.87;100.00
49194;BME280;35029;50.804;12.866;2024-01-15T01:27:00;95807.88;;;-0.91;100.00
49194;BME280;35029;50.804;12.866;2024-01-15T01:29:25;95815.81;;;-0.93;100.00
49194;BME280;35029;50.804;12.866;2024-01-15T01:31:52;95810.00;;;-0.95;100.00
49194;BME280;35029;50.804;12.866;2024-01-15T01:34:17;95812.28;;;-1.00;100.00
49194;BME280;35029;50.804;12.866;2024-01-15T01:36:43;95798.97;;;-1.05;100.00
49194;BME280;35029;50.804;12.866;2024-01-15T01:39:10;95801.63;;;-1.13;100.00
49194;BME280;35029;50.804;12.866;2024-01-15T01:41:36;95783.00;;;-1.25;100.00
49194;BME280;35029;50.804;12.866;2024-01-15T01:44:01;95789.63;;;-1.14;100.00
49194;BME280;35029;50.804;12.866;2024-01-15T01:46:27;95777.91;;;-1.10;100.00
49194;BME280;35029;50.804;12.866;2024-01-15T01:48:55;95767.38;;;-1.17;100.00
49194;BME280;35029;50.804;12.866;2024-01-15T01:51:24;95764.78;;;-1.17;100.00
49194;BME280;35029;50.804;12.866;2024-01-15T01:53:51;95787.06;;;-1.23;100.00
49194;BME280;35029;50.804;12.866;2024-01-15T01:56:17;95783.00;;;-1.25;100.00
49194;BME280;35029;50.804;12.866;2024-01-15T01:58:44;95825.69;;;-1.11;100.00
49194;BME280;35029;50.804;12.866;2024-01-15T02:01:12;95831.38;;;-1.16;100.00
49194;BME280;35029;50.804;12.866;2024-01-15T02:03:39;95834.97;;;-1.17;100.00
49194;BME280;35029;50.804;12.866;2024-01-15T02:06:06;95830.22;;;-1.13;100.00
49194;BME280;35029;50.804;12.866;2024-01-15T02:08:31;95840.44;;;-1.12;100.00
49194;BME280;35029;50.804;12.866;2024-01-15T02:10:57;95821.84;;;-1.24;100.00
49194;BME280;35029;50.804;12.866;2024-01-15T02:13:23;95847.13;;;-1.17;100.00
49194;BME280;35029;50.804;12.866;2024-01-15T02:15:48;95837.56;;;-1.17;100.00
49194;BME280;35029;50.804;12.866;2024-01-15T02:18:14;95848.16;;;-1.18;100.00
49194;BME280;35029;50.804;12.866;2024-01-15T02:20:39;95836.47;;;-1.23;100.00
49194;BME280;35029;50.804;12.866;2024-01-15T02:23:09;95838.72;;;-1.20;100.00
49194;BME280;35029;50.804;12.866;2024-01-15T02:25:42;95819.22;;;-1.24;100.00
49194;BME280;35029;50.804;12.866;2024-01-15T02:28:14;95831.09;;;-1.21;100.00
49194;BME280;35029;50.804;12.866;2024-01-15T02:30:41;95823.16;;;-1.28;100.00
49194;BME280;35029;50.804;12.866;2024-01-15T02:33:08;95827.53;;;-1.37;100.00
49194;BME280;35029;50.804;12.866;2024-01-15T02:35:34;95804.06;;;-1.60;100.00
49194;BME280;35029;50.804;12.866;2024-01-15T02:38:02;95850.13;;;-1.37;100.00
49194;BME280;35029;50.804;12.866;2024-01-15T02:40:28;95855.50;;;-1.39;100.00
49194;BME280;35029;50.804;12.866;2024-01-15T02:42:54;95852.59;;;-1.44;100.00
49194;BME280;35029;50.804;12.866;2024-01-15T02:45:20;95807.97;;;-1.64;100.00
49194;BME280;35029;50.804;12.866;2024-01-15T02:47:45;95847.72;;;-1.39;100.00
49194;BME280;35029;50.804;12.866;2024-01-15T02:50:11;95845.47;;;-1.50;100.00
49194;BME280;35029;50.804;12.866;2024-01-15T02:52:36;95822.25;;;-1.60;100.00
49194;BME280;35029;50.804;12.866;2024-01-15T02:55:02;95828.41;;;-1.44;100.00
49194;BME280;35029;50.804;12.866;2024-01-15T02:57:28;95836.53;;;-1.56;100.00
49194;BME280;35029;50.804;12.866;2024-01-15T02:59:54;95831.03;;;-1.52;100.00
49194;BME280;35029;50.804;12.866;2024-01-15T03:02:19;95842.06;;;-1.59;100.00
49194;BME280;35029;50.804;12.866;2024-01-15T03:04:45;95851.50;;;-1.58;100.00
49194;BME280;35029;50.804;12.866;2024-01-15T03:07:12;95847.28;;;-1.59;100.00
49194;BME280;35029;50.804;12.866;2024-01-15T03:09:38;95847.28;;;-1.59;100.00
49194;BME280;35029;50.804;12.866;2024-01-15T03:12:04;95841.59;;;-1.62;100.00
49194;BME280;35029;50.804;12.866;2024-01-15T03:14:30;95851.19;;;-1.71;100.00
49194;BME280;35029;50.804;12.866;2024-01-15T03:16:56;95820.84;;;-1.87;100.00
49194;BME280;35029;50.804;12.866;2024-01-15T03:19:21;95839.34;;;-1.82;100.00
49194;BME280;35029;50.804;12.866;2024-01-15T03:21:47;95836.41;;;-1.79;100.00
49194;BME280;35029;50.804;12.866;2024-01-15T03:24:13;95842.75;;;-1.73;100.00
49194;BME280;35029;50.804;12.866;2024-01-15T03:26:39;95831.88;;;-1.77;100.00
49194;BME280;35029;50.804;12.866;2024-01-15T03:29:04;95823.94;;;-1.83;100.00
49194;BME280;35029;50.804;12.866;2024-01-15T03:31:30;95829.75;;;-1.81;100.00
49194;BME280;35029;50.804;12.866;2024-01-15T03:33:56;95821.97;;;-1.81;100.00
49194;BME280;35029;50.804;12.866;2024-01-15T03:36:22;95830.44;;;-1.88;100.00
49194;BME280;35029;50.804;12.866;2024-01-15T03:38:47;95775.78;;;-2.27;100.00
49194;BME280;35029;50.804;12.866;2024-01-15T03:41:13;95823.44;;;-1.87;100.00
49194;BME280;35029;50.804;12.866;2024-01-15T03:43:38;95831.91;;;-1.93;100.00
49194;BME280;35029;50.804;12.866;2024-01-15T03:46:05;95827.03;;;-1.80;100.00
49194;BME280;35029;50.804;12.866;2024-01-15T03:48:31;95829.63;;;-1.80;100.00
49194;BME280;35029;50.804;12.866;2024-01-15T03:50:56;95837.41;;;-1.80;100.00
49194;BME280;35029;50.804;12.866;2024-01-15T03:53:22;95822.81;;;-1.89;100.00
49194;BME280;35029;50.804;12.866;2024-01-15T03:55:48;95823.28;;;-1.85;100.00
49194;BME280;35029;50.804;12.866;2024-01-15T03:58:13;95828.47;;;-1.77;100.00
49194;BME280;35029;50.804;12.866;2024-01-15T04:00:40;95816.78;;;-1.90;100.00
49194;BME280;35029;50.804;12.866;2024-01-15T04:03:06;95840.00;;;-1.80;100.00
49194;BME280;35029;50.804;12.866;2024-01-15T04:05:32;95825.06;;;-1.86;100.00
49194;BME280;35029;50.804;12.866;2024-01-15T04:07:59;95832.38;;;-1.90;100.00
49194;BME280;35029;50.804;12.866;2024-01-15T04:10:24;95833.66;;;-1.85;100.00
49194;BME280;35029;50.804;12.866;2024-01-15T04:12:50;95818.94;;;-1.93;100.00
49194;BME280;35029;50.804;12.866;2024-01-15T04:15:15;95832.53;;;-1.91;100.00
49194;BME280;35029;50.804;12.866;2024-01-15T04:17:41;95813.91;;;-2.11;100.00
49194;BME280;35029;50.804;12.866;2024-01-15T04:20:07;95816.34;;;-2.01;100.00
49194;BME280;35029;50.804;12.866;2024-01-15T04:22:33;95803.66;;;-2.13;100.00
49194;BME280;35029;50.804;12.866;2024-01-15T04:24:59;95834.50;;;-1.93;100.00
49194;BME280;35029;50.804;12.866;2024-01-15T04:27:25;95822.00;;;-2.06;100.00
49194;BME280;35029;50.804;12.866;2024-01-15T04:29:50;95825.25;;;-2.04;100.00
49194;BME280;35029;50.804;12.866;2024-01-15T04:32:16;95819.75;;;-2.09;100.00
49194;BME280;35029;50.804;12.866;2024-01-15T04:34:41;95825.09;;;-2.02;100.00
49194;BME280;35029;50.804;12.866;2024-01-15T04:37:07;95823.00;;;-1.99;100.00
49194;BME280;35029;50.804;12.866;2024-01-15T04:39:33;95815.03;;;-1.97;100.00
49194;BME280;35029;50.804;12.866;2024-01-15T04:41:58;95837.91;;;-2.01;100.00
49194;BME280;35029;50.804;12.866;2024-01-15T04:44:24;95821.53;;;-1.93;100.00
49194;BME280;35029;50.804;12.866;2024-01-15T04:46:49;95819.25;;;-1.96;100.00
49194;BME280;35029;50.804;12.866;2024-01-15T04:49:15;95829.00;;;-1.98;100.00
49194;BME280;35029;50.804;12.866;2024-01-15T04:51:41;95822.16;;;-1.99;100.00
49194;BME280;35029;50.804;12.866;2024-01-15T04:54:06;95820.06;;;-2.04;100.00
49194;BME280;35029;50.804;12.866;2024-01-15T04:56:33;95833.53;;;-1.92;100.00
49194;BME280;35029;50.804;12.866;2024-01-15T04:58:58;95823.31;;;-2.02;100.00
49194;BME280;35029;50.804;12.866;2024-01-15T05:01:24;95833.38;;;-2.07;100.00
49194;BME280;35029;50.804;12.866;2024-01-15T05:03:49;95837.56;;;-1.98;100.00
49194;BME280;35029;50.804;12.866;2024-01-15T05:06:15;95842.13;;;-2.00;100.00
49194;BME280;35029;50.804;12.866;2024-01-15T05:08:49;95831.41;;;-1.97;100.00
49194;BME280;35029;50.804;12.866;2024-01-15T05:11:15;95832.09;;;-2.03;100.00
49194;BME280;35029;50.804;12.866;2024-01-15T05:13:42;95847.81;;;-2.05;100.00
49194;BME280;35029;50.804;12.866;2024-01-15T05:16:08;95835.00;;;-2.14;100.00
49194;BME280;35029;50.804;12.866;2024-01-15T05:18:33;95849.94;;;-2.00;100.00
49194;BME280;35029;50.804;12.866;2024-01-15T05:20:59;95826.75;;;-2.18;100.00
49194;BME280;35029;50.804;12.866;2024-01-15T05:23:24;95843.44;;;-1.96;100.00
49194;BME280;35029;50.804;12.866;2024-01-15T05:25:51;95819.56;;;-2.08;100.00
49194;BME280;35029;50.804;12.866;2024-01-15T05:28:17;95842.78;;;-1.98;100.00
49194;BME280;35029;50.804;12.866;2024-01-15T05:30:42;95835.16;;;-2.08;100.00
49194;BME280;35029;50.804;12.866;2024-01-15T05:33:08;95845.06;;;-1.95;100.00
49194;BME280;35029;50.804;12.866;2024-01-15T05:35:34;95850.72;;;-1.99;100.00
49194;BME280;35029;50.804;12.866;2024-01-15T05:38:00;95844.22;;;-1.95;100.00
49194;BME280;35029;50.804;12.866;2024-01-15T05:40:26;95839.38;;;-1.90;100.00
49194;BME280;35029;50.804;12.866;2024-01-15T05:42:51;95847.00;;;-1.89;100.00
49194;BME280;35029;50.804;12.866;2024-01-15T05:45:17;95847.34;;;-2.00;100.00
49194;BME280;35029;50.804;12.866;2024-01-15T05:47:42;95872.97;;;-1.89;100.00
49194;BME280;35029;50.804;12.866;2024-01-15T05:50:09;95833.53;;;-2.09;100.00
49194;BME280;35029;50.804;12.866;2024-01-15T05:52:35;95837.56;;;-1.90;100.00
49194;BME280;35029;50.804;12.866;2024-01-15T05:55:00;95831.75;;;-1.92;100.00
49194;BME280;35029;50.804;12.866;2024-01-15T05:57:26;95843.41;;;-1.79;100.00
49194;BME280;35029;50.804;12.866;2024-01-15T05:59:51;95840.66;;;-1.86;100.00
49194;BME280;35029;50.804;12.866;2024-01-15T06:02:17;95818.94;;;-1.93;100.00
49194;BME280;35029;50.804;12.866;2024-01-15T06:04:43;95837.41;;;-1.80;100.00
49194;BME280;35029;50.804;12.866;2024-01-15T06:07:09;95836.75;;;-1.82;100.00
49194;BME280;35029;50.804;12.866;2024-01-15T06:09:34;95832.69;;;-1.84;100.00
49194;BME280;35029;50.804;12.866;2024-01-15T06:12:00;95839.69;;;-1.85;100.00
49194;BME280;35029;50.804;12.866;2024-01-15T06:14:26;95832.06;;;-1.87;100.00
49194;BME280;35029;50.804;12.866;2024-01-15T06:16:53;95819.09;;;-1.95;100.00
49194;BME280;35029;50.804;12.866;2024-01-15T06:19:18;95830.44;;;-1.88;100.00
49194;BME280;35029;50.804;12.866;2024-01-15T06:21:44;95824.09;;;-1.85;100.00
49194;BME280;35029;50.804;12.866;2024-01-15T06:24:09;95783.72;;;-2.12;100.00
49194;BME280;35029;50.804;12.866;2024-01-15T06:26:36;95809.69;;;-2.04;100.00
49194;BME280;35029;50.804;12.866;2024-01-15T06:29:03;95817.94;;;-2.00;100.00
49194;BME280;35029;50.804;12.866;2024-01-15T06:31:28;95812.59;;;-1.99;100.00
49194;BME280;35029;50.804;12.866;2024-01-15T06:33:55;95798.00;;;-2.08;100.00
49194;BME280;35029;50.804;12.866;2024-01-15T06:36:21;95810.00;;;-1.99;100.00
49194;BME280;35029;50.804;12.866;2024-01-15T06:38:46;95789.88;;;-1.97;100.00
49194;BME280;35029;50.804;12.866;2024-01-15T06:41:12;95813.72;;;-1.85;100.00
49194;BME280;35029;50.804;12.866;2024-01-15T06:43:38;95811.47;;;-1.88;100.00
49194;BME280;35029;50.804;12.866;2024-01-15T06:46:03;95788.91;;;-2.04;100.00
49194;BME280;35029;50.804;12.866;2024-01-15T06:48:29;95811.47;;;-1.88;100.00
49194;BME280;35029;50.804;12.866;2024-01-15T06:50:55;95814.88;;;-1.96;100.00
49194;BME280;35029;50.804;12.866;2024-01-15T06:53:20;95796.69;;;-1.96;100.00
49194;BME280;35029;50.804;12.866;2024-01-15T06:55:46;95808.03;;;-1.89;100.00
49194;BME280;35029;50.804;12.866;2024-01-15T06:58:12;95800.09;;;-2.04;100.00
49194;BME280;35029;50.804;12.866;2024-01-15T07:00:37;95806.28;;;-1.96;100.00
49194;BME280;35029;50.804;12.866;2024-01-15T07:03:03;95774.00;;;-2.18;100.00
49194;BME280;35029;50.804;12.866;2024-01-15T07:05:30;95811.59;;;-1.90;100.00
49194;BME280;35029;50.804;12.866;2024-01-15T07:07:56;95819.41;;;-1.98;100.00
49194;BME280;35029;50.804;12.866;2024-01-15T07:10:22;95795.41;;;-2.08;100.00
49194;BME280;35029;50.804;12.866;2024-01-15T07:12:48;95811.59;;;-1.98;100.00
49194;BME280;35029;50.804;12.866;2024-01-15T07:15:16;95835.47;;;-1.94;100.00
49194;BME280;35029;50.804;12.866;2024-01-15T07:17:41;95826.72;;;-2.01;100.00
49194;BME280;35029;50.804;12.866;2024-01-15T07:20:08;95829.16;;;-1.92;100.00
49194;BME280;35029;50.804;12.866;2024-01-15T07:22:38;95799.78;;;-2.17;100.00
49194;BME280;35029;50.804;12.866;2024-01-15T07:25:04;95812.63;;;-2.07;100.00
49194;BME280;35029;50.804;12.866;2024-01-15T07:27:31;95808.06;;;-2.05;100.00
49194;BME280;35029;50.804;12.866;2024-01-15T07:29:57;95830.94;;;-1.92;100.00
49194;BME280;35029;50.804;12.866;2024-01-15T07:32:24;95801.41;;;-2.24;100.00
49194;BME280;35029;50.804;12.866;2024-01-15T07:34:50;95827.69;;;-2.02;100.00
49194;BME280;35029;50.804;12.866;2024-01-15T07:37:15;95796.88;;;-2.22;100.00
49194;BME280;35029;50.804;12.866;2024-01-15T07:39:41;95844.72;;;-1.92;100.00
49194;BME280;35029;50.804;12.866;2024-01-15T07:42:07;95839.38;;;-1.98;100.00
49194;BME280;35029;50.804;12.866;2024-01-15T07:44:33;95836.94;;;-2.00;100.00
49194;BME280;35029;50.804;12.866;2024-01-15T07:46:58;95827.69;;;-1.94;100.00
49194;BME280;35029;50.804;12.866;2024-01-15T07:49:24;95841.63;;;-1.87;100.00
49194;BME280;35029;50.804;12.866;2024-01-15T07:51:50;95837.25;;;-1.87;100.00
49194;BME280;35029;50.804;12.866;2024-01-15T07:54:16;95860.31;;;-1.83;100.00
49194;BME280;35029;50.804;12.866;2024-01-15T07:56:59;95858.81;;;-1.70;100.00
49194;BME280;35029;50.804;12.866;2024-01-15T07:59:25;95822.97;;;-1.91;100.00
49194;BME280;35029;50.804;12.866;2024-01-15T08:01:52;95839.00;;;-1.79;100.00
49194;BME280;35029;50.804;12.866;2024-01-15T08:04:18;95842.44;;;-1.78;100.00
49194;BME280;35029;50.804;12.866;2024-01-15T08:06:44;95837.84;;;-1.60;100.00
49194;BME280;35029;50.804;12.866;2024-01-15T08:09:10;95847.78;;;-1.63;99.62
49194;BME280;35029;50.804;12.866;2024-01-15T08:11:38;95842.75;;;-1.65;99.50
49194;BME280;35029;50.804;12.866;2024-01-15T08:14:04;95838.16;;;-1.55;100.00
49194;BME280;35029;50.804;12.866;2024-01-15T08:16:29;95843.00;;;-1.43;100.00
49194;BME280;35029;50.804;12.866;2024-01-15T08:18:55;95845.53;;;-1.18;100.00
49194;BME280;35029;50.804;12.866;2024-01-15T08:21:22;95848.69;;;-1.00;100.00
49194;BME280;35029;50.804;12.866;2024-01-15T08:23:48;95858.44;;;-0.94;100.00
49194;BME280;35029;50.804;12.866;2024-01-15T08:26:13;95854.66;;;-0.83;100.00
49194;BME280;35029;50.804;12.866;2024-01-15T08:28:39;95841.19;;;-0.63;100.00
49194;BME280;35029;50.804;12.866;2024-01-15T08:31:04;95853.91;;;-0.69;98.03
49194;BME280;35029;50.804;12.866;2024-01-15T08:33:30;95847.16;;;-0.86;96.54
49194;BME280;35029;50.804;12.866;2024-01-15T08:35:57;95851.53;;;-0.78;96.96
49194;BME280;35029;50.804;12.866;2024-01-15T08:38:22;95856.06;;;-0.72;97.33
49194;BME280;35029;50.804;12.866;2024-01-15T08:40:49;95846.94;;;-0.68;97.22
49194;BME280;35029;50.804;12.866;2024-01-15T08:43:14;95845.13;;;-0.68;98.12
49194;BME280;35029;50.804;12.866;2024-01-15T08:45:40;95840.78;;;-0.75;97.83
49194;BME280;35029;50.804;12.866;2024-01-15T08:48:06;95839.22;;;-0.84;96.50
49194;BME280;35029;50.804;12.866;2024-01-15T08:50:32;95838.47;;;-0.70;100.00
49194;BME280;35029;50.804;12.866;2024-01-15T08:52:58;95852.38;;;-0.86;96.18
49194;BME280;35029;50.804;12.866;2024-01-15T08:55:25;95858.91;;;-0.90;95.97
49194;BME280;35029;50.804;12.866;2024-01-15T08:57:51;95862.63;;;-0.84;98.85
49194;BME280;35029;50.804;12.866;2024-01-15T09:00:17;95839.50;;;-0.79;99.50
49194;BME280;35029;50.804;12.866;2024-01-15T09:02:43;95849.59;;;-0.76;97.27
49194;BME280;35029;50.804;12.866;2024-01-15T09:05:09;95846.59;;;-0.65;96.07
49194;BME280;35029;50.804;12.866;2024-01-15T09:07:35;95859.94;;;-0.68;95.49
49194;BME280;35029;50.804;12.866;2024-01-15T09:10:00;95849.00;;;-0.63;99.20
49194;BME280;35029;50.804;12.866;2024-01-15T09:12:27;95848.22;;;-0.64;99.17
49194;BME280;35029;50.804;12.866;2024-01-15T09:14:53;95859.25;;;-0.62;97.11
49194;BME280;35029;50.804;12.866;2024-01-15T09:17:22;95843.84;;;-0.72;98.23
49194;BME280;35029;50.804;12.866;2024-01-15T09:19:50;95849.69;;;-0.70;96.54
49194;BME280;35029;50.804;12.866;2024-01-15T09:22:15;95860.81;;;-0.53;97.88
49194;BME280;35029;50.804;12.866;2024-01-15T09:24:45;95851.69;;;-0.48;96.43
49194;BME280;35029;50.804;12.866;2024-01-15T09:27:11;95840.84;;;-0.60;94.43
49194;BME280;35029;50.804;12.866;2024-01-15T09:29:36;95853.44;;;-0.41;95.83
49194;BME280;35029;50.804;12.866;2024-01-15T09:32:07;95852.28;;;-0.38;96.05
49194;BME280;35029;50.804;12.866;2024-01-15T09:34:34;95862.84;;;-0.40;94.35
49194;BME280;35029;50.804;12.866;2024-01-15T09:37:00;95860.41;;;-0.41;94.64
49194;BME280;35029;50.804;12.866;2024-01-15T09:39:27;95852.66;;;-0.49;94.11
49194;BME280;35029;50.804;12.866;2024-01-15T09:41:53;95845.50;;;-0.47;94.29
49194;BME280;35029;50.804;12.866;2024-01-15T09:44:19;95854.13;;;-0.47;94.05
49194;BME280;35029;50.804;12.866;2024-01-15T09:46:47;95855.06;;;-0.71;91.31
49194;BME280;35029;50.804;12.866;2024-01-15T09:49:16;95853.03;;;-0.84;92.59
49194;BME280;35029;50.804;12.866;2024-01-15T09:51:42;95838.31;;;-1.00;92.68
49194;BME280;35029;50.804;12.866;2024-01-15T09:54:08;95852.31;;;-0.78;92.64
49194;BME280;35029;50.804;12.866;2024-01-15T09:56:35;95861.97;;;-0.87;93.17
49194;BME280;35029;50.804;12.866;2024-01-15T09:59:01;95865.03;;;-0.75;92.75
49194;BME280;35029;50.804;12.866;2024-01-15T10:01:27;95854.16;;;-0.87;92.62
49194;BME280;35029;50.804;12.866;2024-01-15T10:03:54;95868.41;;;-0.74;93.18
49194;BME280;35029;50.804;12.866;2024-01-15T10:06:21;95861.41;;;-0.74;93.67
49194;BME280;35029;50.804;12.866;2024-01-15T10:08:51;95856.88;;;-0.72;94.32
49194;BME280;35029;50.804;12.866;2024-01-15T10:11:17;95845.78;;;-0.65;93.12
49194;BME280;35029;50.804;12.866;2024-01-15T10:13:43;95849.31;;;-0.58;93.65
49194;BME280;35029;50.804;12.866;2024-01-15T10:16:10;95844.41;;;-0.53;93.39
49194;BME280;35029;50.804;12.866;2024-01-15T10:18:36;95847.16;;;-0.55;92.56
49194;BME280;35029;50.804;12.866;2024-01-15T10:21:03;95840.69;;;-0.59;91.57
49194;BME280;35029;50.804;12.866;2024-01-15T10:23:31;95827.41;;;-0.64;92.71
49194;BME280;35029;50.804;12.866;2024-01-15T10:25:57;95829.78;;;-0.54;92.84
49194;BME280;35029;50.804;12.866;2024-01-15T10:28:26;95815.94;;;-0.55;91.92
49194;BME280;35029;50.804;12.866;2024-01-15T10:30:53;95819.47;;;-0.24;91.35
49194;BME280;35029;50.804;12.866;2024-01-15T10:33:22;95823.47;;;-0.13;90.44
49194;BME280;35029;50.804;12.866;2024-01-15T10:35:55;95817.56;;;0.08;88.94
49194;BME280;35029;50.804;12.866;2024-01-15T10:38:22;95815.16;;;0.21;88.21
49194;BME280;35029;50.804;12.866;2024-01-15T10:40:54;95806.38;;;0.22;87.22
49194;BME280;35029;50.804;12.866;2024-01-15T10:43:20;95807.09;;;0.46;86.33
49194;BME280;35029;50.804;12.866;2024-01-15T10:45:48;95819.75;;;0.34;85.91
49194;BME280;35029;50.804;12.866;2024-01-15T10:48:16;95816.16;;;0.20;86.83
49194;BME280;35029;50.804;12.866;2024-01-15T10:50:42;95805.38;;;0.23;86.80
49194;BME280;35029;50.804;12.866;2024-01-15T10:53:08;95806.84;;;0.03;86.61
49194;BME280;35029;50.804;12.866;2024-01-15T10:55:35;95811.38;;;0.09;88.29
49194;BME280;35029;50.804;12.866;2024-01-15T10:58:03;95812.31;;;-0.07;88.28
49194;BME280;35029;50.804;12.866;2024-01-15T11:00:30;95814.19;;;-0.16;88.53
49194;BME280;35029;50.804;12.866;2024-01-15T11:02:56;95801.09;;;-0.08;89.34
49194;BME280;35029;50.804;12.866;2024-01-15T11:05:22;95808.63;;;-0.13;88.43
49194;BME280;35029;50.804;12.866;2024-01-15T11:07:49;95780.69;;;-0.04;88.88
49194;BME280;35029;50.804;12.866;2024-01-15T11:10:46;95807.88;;;0.02;87.47
49194;BME280;35029;50.804;12.866;2024-01-15T11:16:06;95795.69;;;0.47;87.21
49194;BME280;35029;50.804;12.866;2024-01-15T11:18:41;95801.16;;;0.22;84.84
49194;BME280;35029;50.804;12.866;2024-01-15T11:34:10;95788.47;;;0.04;87.10
49194;BME280;35029;50.804;12.866;2024-01-15T11:39:39;95789.09;;;0.21;87.85
49194;BME280;35029;50.804;12.866;2024-01-15T11:42:05;95789.28;;;0.20;86.60
49194;BME280;35029;50.804;12.866;2024-01-15T11:44:31;95798.38;;;0.24;87.93
49194;BME280;35029;50.804;12.866;2024-01-15T11:47:04;95788.94;;;0.23;86.83
49194;BME280;35029;50.804;12.866;2024-01-15T11:50:01;95791.06;;;0.19;87.02
49194;BME280;35029;50.804;12.866;2024-01-15T11:52:33;95787.78;;;0.40;90.76
49194;BME280;35029;50.804;12.866;2024-01-15T11:55:12;95797.50;;;0.46;87.92
49194;BME280;35029;50.804;12.866;2024-01-15T12:00:13;95799.00;;;0.41;91.64
49194;BME280;35029;50.804;12.866;2024-01-15T12:02:40;95793.00;;;0.40;90.67
49194;BME280;35029;50.804;12.866;2024-01-15T12:05:08;95807.44;;;0.28;88.86
49194;BME280;35029;50.804;12.866;2024-01-15T12:07:33;95801.25;;;0.29;90.19
49194;BME280;35029;50.804;12.866;2024-01-15T12:10:00;95798.38;;;0.24;91.87
49194;BME280;35029;50.804;12.866;2024-01-15T12:15:05;95802.69;;;0.16;90.64
49194;BME280;35029;50.804;12.866;2024-01-15T12:17:32;95799.91;;;0.18;91.10
49194;BME280;35029;50.804;12.866;2024-01-15T12:19:57;95790.00;;;0.13;90.77
49194;BME280;35029;50.804;12.866;2024-01-15T12:22:25;95793.16;;;0.24;90.69
49194;BME280;35029;50.804;12.866;2024-01-15T12:24:53;95790.28;;;0.19;90.24
49194;BME280;35029;50.804;12.866;2024-01-15T12:27:22;95794.28;;;0.06;91.27
49194;BME280;35029;50.804;12.866;2024-01-15T12:29:47;95800.50;;;0.05;89.88
49194;BME280;35029;50.804;12.866;2024-01-15T12:32:13;95800.69;;;0.19;92.39
49194;BME280;35029;50.804;12.866;2024-01-15T12:34:41;95794.97;;;0.23;91.76
49194;BME280;35029;50.804;12.866;2024-01-15T12:37:09;95790.84;;;0.29;92.48
49194;BME280;35029;50.804;12.866;2024-01-15T12:39:36;95798.00;;;0.12;89.14
49194;BME280;35029;50.804;12.866;2024-01-15T12:42:02;95786.38;;;-0.01;90.25
49194;BME280;35029;50.804;12.866;2024-01-15T12:44:29;95785.59;;;-0.01;90.91
49194;BME280;35029;50.804;12.866;2024-01-15T12:46:54;95774.88;;;-0.06;90.69
49194;BME280;35029;50.804;12.866;2024-01-15T12:49:21;95796.75;;;-0.15;90.42
49194;BME280;35029;50.804;12.866;2024-01-15T12:51:58;95769.06;;;-0.31;90.16
49194;BME280;35029;50.804;12.866;2024-01-15T12:54:24;95779.19;;;-0.13;90.94
49194;BME280;35029;50.804;12.866;2024-01-15T12:56:50;95777.00;;;-0.10;89.74
49194;BME280;35029;50.804;12.866;2024-01-15T12:59:17;95771.13;;;0.11;90.56
49194;BME280;35029;50.804;12.866;2024-01-15T13:01:43;95757.53;;;0.01;89.71
49194;BME280;35029;50.804;12.866;2024-01-15T13:04:08;95771.81;;;-0.10;89.09
49194;BME280;35029;50.804;12.866;2024-01-15T13:06:35;95781.31;;;-0.17;90.65